Time;durP1;ratioP1;P1;durP2;ratioP2;P2;SDS_P1;SDS_P2;PMS_P1;PMS_P2;Temp;Humidity;BMP_temperature;BMP_pressure;BME280_temperature;BME280_humidity;BME280_pressure;Samples;Min_cycle;Max_cycle;Signal;HPM_P1;HPM_P2
2021/04/05 00:00:12;;;;;;;6.03;3.92;;;9.90;60.50;;;;;;5081300;27;20039;-92
2021/04/05 00:02:39;;;;;;;7.18;4.15;;;9.90;60.50;;;;;;5122044;27;20093;-92
2021/04/05 00:05:08;;;;;;;6.97;4.40;;;9.90;60.50;;;;;;5060362;28;20135;-92
2021/04/05 00:07:34;;;;;;;6.72;4.53;;;9.90;60.60;;;;;;5062705;28;20029;-93
2021/04/05 00:09:59;;;;;;;6.75;3.90;;;9.90;60.60;;;;;;5069660;28;20473;-92
2021/04/05 00:12:25;;;;;;;6.40;4.43;;;9.80;60.50;;;;;;5056292;28;20036;-93
2021/04/05 00:14:51;;;;;;;7.47;4.68;;;9.80;60.50;;;;;;5073803;28;20048;-92
2021/04/05 00:17:17;;;;;;;5.88;4.35;;;9.80;60.60;;;;;;5075795;28;20016;-91
2021/04/05 00:19:43;;;;;;;7.07;4.30;;;9.80;60.60;;;;;;5056248;28;20097;-91
2021/04/05 00:22:09;;;;;;;6.13;4.30;;;9.80;60.60;;;;;;5089319;28;20056;-91
2021/04/05 00:24:35;;;;;;;7.05;4.80;;;9.80;60.70;;;;;;5055983;28;20388;-93
2021/04/05 00:27:01;;;;;;;7.40;4.80;;;9.80;60.70;;;;;;5056069;28;20021;-91
2021/04/05 00:29:27;;;;;;;7.72;4.28;;;9.80;60.70;;;;;;5072871;28;20028;-91
2021/04/05 00:31:53;;;;;;;6.55;4.47;;;9.70;60.70;;;;;;5079403;28;20016;-92
2021/04/05 00:34:19;;;;;;;6.32;4.35;;;9.70;60.70;;;;;;5042531;28;20128;-91
2021/04/05 00:36:45;;;;;;;6.97;4.50;;;9.70;60.70;;;;;;5055555;28;20028;-92
2021/04/05 00:39:11;;;;;;;7.35;4.82;;;9.70;60.70;;;;;;5045313;28;20024;-92
2021/04/05 00:41:37;;;;;;;6.47;5.00;;;9.70;60.70;;;;;;5072749;28;20123;-92
2021/04/05 00:44:03;;;;;;;7.68;4.80;;;9.70;60.80;;;;;;5071925;28;20024;-92
2021/04/05 00:46:29;;;;;;;6.82;4.60;;;9.70;60.80;;;;;;5081004;28;20024;-92
2021/04/05 00:48:55;;;;;;;6.43;4.90;;;9.70;60.80;;;;;;5072987;28;20044;-92
2021/04/05 00:51:26;;;;;;;7.97;5.00;;;9.70;60.80;;;;;;5089128;28;20021;-93
2021/04/05 00:53:52;;;;;;;6.97;4.93;;;9.60;60.80;;;;;;5080996;28;20023;-91
2021/04/05 00:56:22;;;;;;;5.88;4.55;;;9.60;60.80;;;;;;5076699;28;20028;-93
2021/04/05 00:58:49;;;;;;;6.63;4.97;;;9.60;60.90;;;;;;5089577;28;20028;-92
2021/04/05 01:01:20;;;;;;;6.80;4.70;;;9.60;60.90;;;;;;5090346;28;20032;-93
2021/04/05 01:03:49;;;;;;;7.97;4.95;;;9.60;60.90;;;;;;5084626;28;20046;-92
2021/04/05 01:06:24;;;;;;;7.72;5.03;;;9.60;60.90;;;;;;5113310;28;20108;-93
2021/04/05 01:08:52;;;;;;;6.28;4.45;;;9.60;61.00;;;;;;5113014;28;20039;-93
2021/04/05 01:11:20;;;;;;;7.95;4.93;;;9.60;60.90;;;;;;5113168;28;20464;-93
2021/04/05 01:13:49;;;;;;;6.32;4.78;;;9.60;61.00;;;;;;5112837;28;20024;-91
2021/04/05 01:16:15;;;;;;;7.10;5.38;;;9.50;60.90;;;;;;5117298;28;20222;-92
2021/04/05 01:18:41;;;;;;;7.63;5.28;;;9.50;61.00;;;;;;5113347;28;20024;-92
2021/04/05 01:21:08;;;;;;;6.70;4.50;;;9.50;61.00;;;;;;5112942;28;20101;-91
2021/04/05 01:23:36;;;;;;;8.10;5.57;;;9.50;61.00;;;;;;5095855;28;20024;-92
2021/04/05 01:26:02;;;;;;;7.18;4.90;;;9.50;61.00;;;;;;5095649;28;20019;-92
2021/04/05 01:28:28;;;;;;;8.20;4.97;;;9.50;61.00;;;;;;5096121;28;20078;-92
2021/04/05 01:30:56;;;;;;;7.93;5.35;;;9.50;61.00;;;;;;5112661;28;20693;-92
2021/04/05 01:33:33;;;;;;;7.63;4.80;;;9.50;61.10;;;;;;5112630;28;20046;-91
2021/04/05 01:36:03;;;;;;;7.38;5.05;;;9.50;61.20;;;;;;5097773;28;20007;-91
2021/04/05 01:38:40;;;;;;;8.80;5.55;;;9.40;61.10;;;;;;5120838;27;20531;-92
2021/04/05 01:41:24;;;;;;;7.75;5.35;;;9.40;61.20;;;;;;5116221;28;20181;-91
2021/04/05 01:43:52;;;;;;;7.85;5.13;;;9.40;61.10;;;;;;5116567;28;20535;-91
2021/04/05 01:46:22;;;;;;;8.15;5.55;;;9.40;61.20;;;;;;5115861;27;20027;-92
2021/04/05 01:48:48;;;;;;;7.30;5.18;;;9.40;61.20;;;;;;5116528;28;20091;-91
2021/04/05 01:51:20;;;;;;;8.02;5.60;;;9.40;61.20;;;;;;5116381;28;20031;-92
2021/04/05 01:53:47;;;;;;;6.85;4.90;;;9.40;61.30;;;;;;5116220;28;20036;-93
2021/04/05 01:56:16;;;;;;;7.35;5.40;;;9.40;61.30;;;;;;5115495;28;20031;-92
2021/04/05 01:58:45;;;;;;;7.40;4.93;;;9.40;61.30;;;;;;5115444;28;20023;-92
2021/04/05 02:01:18;;;;;;;7.82;5.47;;;9.40;61.30;;;;;;5115819;28;20024;-93
2021/04/05 02:03:44;;;;;;;7.65;5.18;;;9.40;61.40;;;;;;5105800;28;20036;-93
2021/04/05 02:06:25;;;;;;;8.30;5.32;;;9.40;61.40;;;;;;5100825;28;20503;-93
2021/04/05 02:08:52;;;;;;;7.53;5.63;;;9.40;61.40;;;;;;5098302;28;20484;-93
2021/04/05 02:11:24;;;;;;;8.27;5.50;;;9.40;61.40;;;;;;5110156;28;20054;-93
2021/04/05 02:13:54;;;;;;;7.47;5.50;;;9.40;61.50;;;;;;5107835;28;20028;-95
2021/04/05 02:16:21;;;;;;;7.55;5.13;;;9.40;61.50;;;;;;5099265;28;20030;-93
2021/04/05 02:18:48;;;;;;;8.00;5.30;;;9.30;61.50;;;;;;5115954;28;20051;-93
2021/04/05 02:21:16;;;;;;;7.22;5.32;;;9.40;61.60;;;;;;5103057;28;20030;-94
2021/04/05 02:23:42;;;;;;;6.93;5.00;;;9.40;61.60;;;;;;5115766;27;20038;-94
2021/04/05 02:26:10;;;;;;;8.45;5.65;;;9.30;61.60;;;;;;5098501;28;20051;-94
2021/04/05 02:28:41;;;;;;;8.13;5.88;;;9.40;61.60;;;;;;5098748;28;20024;-93
2021/04/05 02:31:12;;;;;;;10.48;5.60;;;9.40;61.70;;;;;;5115560;28;20023;-93
2021/04/05 02:33:39;;;;;;;6.95;5.03;;;9.40;61.70;;;;;;5114820;28;20038;-94
2021/04/05 02:36:12;;;;;;;7.30;4.68;;;9.40;61.70;;;;;;5098350;28;20057;-93
2021/04/05 02:38:40;;;;;;;7.90;5.47;;;9.40;61.70;;;;;;5128737;27;20058;-95
2021/04/05 02:41:12;;;;;;;7.05;5.25;;;9.40;61.70;;;;;;5098146;28;20084;-94
2021/04/05 02:43:39;;;;;;;7.47;5.47;;;9.40;61.80;;;;;;5114891;28;20024;-94
2021/04/05 02:46:06;;;;;;;6.95;5.15;;;9.40;61.80;;;;;;5102355;28;20059;-92
2021/04/05 02:48:37;;;;;;;8.52;5.82;;;9.40;61.90;;;;;;5097653;28;20028;-93
2021/04/05 02:51:07;;;;;;;7.40;5.50;;;9.40;61.90;;;;;;5115343;28;20038;-92
2021/04/05 02:53:35;;;;;;;7.20;5.40;;;9.40;61.90;;;;;;5112400;28;20028;-94
2021/04/05 02:56:07;;;;;;;8.27;5.28;;;9.40;61.90;;;;;;5115128;28;20020;-93
2021/04/05 02:58:35;;;;;;;6.68;4.88;;;9.40;62.00;;;;;;5115993;28;20020;-93
2021/04/05 03:01:04;;;;;;;7.60;4.85;;;9.40;62.00;;;;;;5115136;28;20122;-92
2021/04/05 03:03:30;;;;;;;8.65;5.88;;;9.40;62.00;;;;;;5097770;28;20109;-91
2021/04/05 03:05:56;;;;;;;8.77;5.28;;;9.40;62.00;;;;;;5114854;28;20131;-94
2021/04/05 03:08:25;;;;;;;7.07;5.13;;;9.40;62.00;;;;;;5115011;28;20066;-93
2021/04/05 03:10:52;;;;;;;7.38;5.43;;;9.40;62.10;;;;;;5119788;27;20039;-93
2021/04/05 03:13:18;;;;;;;9.30;5.38;;;9.40;62.10;;;;;;5096810;28;20024;-93
2021/04/05 03:15:44;;;;;;;7.35;5.38;;;9.50;62.20;;;;;;5101225;27;20122;-93
2021/04/05 03:18:11;;;;;;;7.45;4.97;;;9.40;62.10;;;;;;5127053;27;20055;-93
2021/04/05 03:20:38;;;;;;;7.07;5.00;;;9.40;62.10;;;;;;5097458;28;20522;-92
2021/04/05 03:23:04;;;;;;;10.65;5.10;;;9.40;62.10;;;;;;5086437;27;20027;-93
2021/04/05 03:25:31;;;;;;;7.50;5.18;;;9.50;62.20;;;;;;5114790;28;20087;-92
2021/04/05 03:27:57;;;;;;;7.38;5.07;;;9.50;62.20;;;;;;5097224;28;20022;-93
2021/04/05 03:30:23;;;;;;;6.88;4.55;;;9.50;62.30;;;;;;5114193;28;20509;-93
2021/04/05 03:32:56;;;;;;;8.30;5.30;;;9.50;62.30;;;;;;5097281;28;20031;-93
2021/04/05 03:35:29;;;;;;;6.88;5.03;;;9.50;62.30;;;;;;5141292;27;20027;-94
2021/04/05 03:37:56;;;;;;;7.80;4.57;;;9.50;62.30;;;;;;5115699;27;20027;-92
2021/04/05 03:40:23;;;;;;;7.63;4.93;;;9.50;62.30;;;;;;5096922;28;20052;-90
2021/04/05 03:43:07;;;;;;;6.88;5.00;;;9.50;62.30;;;;;;5115201;28;20028;-91
2021/04/05 03:45:48;;;;;;;7.38;4.97;;;9.50;62.40;;;;;;5098493;28;20053;-91
2021/04/05 03:48:51;;;;;;;6.97;5.10;;;9.50;62.40;;;;;;5113956;28;20027;-90
2021/04/05 03:51:25;;;;;;;7.30;4.47;;;9.50;62.40;;;;;;5100894;27;20543;-91
2021/04/05 03:54:08;;;;;;;8.27;5.15;;;9.60;62.30;;;;;;5113900;28;20026;-91
2021/04/05 03:56:54;;;;;;;7.35;4.70;;;9.50;62.40;;;;;;5096563;28;20035;-91
2021/04/05 03:59:27;;;;;;;8.18;4.88;;;9.50;62.40;;;;;;5095875;28;20032;-92
2021/04/05 04:02:03;;;;;;;6.50;4.47;;;9.60;62.40;;;;;;5111633;28;20027;-92
2021/04/05 04:04:35;;;;;;;7.82;5.13;;;9.60;62.40;;;;;;5112884;28;20050;-94
2021/04/05 04:07:18;;;;;;;6.82;4.38;;;9.60;62.40;;;;;;5113744;28;20468;-92
2021/04/05 04:09:46;;;;;;;7.55;4.68;;;9.60;62.40;;;;;;5098710;28;20491;-92
2021/04/05 04:12:16;;;;;;;7.13;4.80;;;9.60;62.40;;;;;;5099197;28;20024;-92
2021/04/05 04:14:43;;;;;;;6.70;4.82;;;9.60;62.50;;;;;;5093185;28;20024;-92
2021/04/05 04:17:10;;;;;;;8.45;5.10;;;9.60;62.50;;;;;;5102960;28;20031;-92
2021/04/05 04:19:38;;;;;;;7.82;5.45;;;9.60;62.50;;;;;;5095732;28;20030;-93
2021/04/05 04:22:07;;;;;;;6.57;4.78;;;9.60;62.50;;;;;;5095662;28;20031;-93
2021/04/05 04:24:35;;;;;;;9.27;5.28;;;9.60;62.60;;;;;;5113406;28;20020;-93
2021/04/05 04:27:01;;;;;;;7.80;4.90;;;9.70;62.60;;;;;;5102605;28;20024;-92
2021/04/05 04:29:28;;;;;;;8.23;4.97;;;9.60;62.60;;;;;;5112456;28;20275;-92
2021/04/05 04:31:54;;;;;;;8.07;5.20;;;9.70;62.60;;;;;;5113540;28;20067;-92
2021/04/05 04:34:21;;;;;;;7.47;4.82;;;9.70;62.60;;;;;;5113329;28;20036;-94
2021/04/05 04:36:48;;;;;;;8.70;4.60;;;9.60;62.60;;;;;;5115232;28;20020;-93
2021/04/05 04:39:15;;;;;;;8.35;5.05;;;9.60;62.60;;;;;;5095759;28;20027;-94
2021/04/05 04:41:43;;;;;;;7.57;4.63;;;9.70;62.70;;;;;;5096379;28;20035;-94
2021/04/05 04:44:10;;;;;;;6.93;4.80;;;9.70;62.70;;;;;;5092714;28;20038;-91
2021/04/05 04:46:37;;;;;;;7.82;5.55;;;9.70;62.60;;;;;;5110939;28;20027;-93
2021/04/05 04:49:05;;;;;;;6.53;4.80;;;9.70;62.60;;;;;;5113392;28;20035;-93
2021/04/05 04:51:32;;;;;;;9.48;5.30;;;9.70;62.70;;;;;;5122150;28;20376;-93
2021/04/05 04:54:01;;;;;;;7.38;5.00;;;9.70;62.70;;;;;;5113379;28;20027;-93
2021/04/05 04:56:30;;;;;;;7.53;5.13;;;9.70;62.70;;;;;;5112965;28;20030;-95
2021/04/05 04:59:16;;;;;;;7.72;4.70;;;9.70;62.70;;;;;;5096434;28;20035;-92
2021/04/05 05:01:44;;;;;;;8.35;4.97;;;9.70;62.80;;;;;;5113076;28;20024;-93
2021/04/05 05:04:23;;;;;;;8.48;4.70;;;9.70;62.70;;;;;;5096116;28;20079;-93
2021/04/05 05:06:51;;;;;;;6.60;5.00;;;9.70;62.80;;;;;;5112615;28;20375;-93
2021/04/05 05:09:19;;;;;;;7.45;4.68;;;9.70;62.80;;;;;;5114179;28;20035;-93
2021/04/05 05:11:46;;;;;;;6.60;4.15;;;9.70;62.90;;;;;;5117132;28;20015;-93
2021/04/05 05:14:16;;;;;;;7.53;5.32;;;9.80;63.60;;;;;;5116858;28;20044;-91
2021/04/05 05:16:43;;;;;;;8.02;4.95;;;9.80;63.00;;;;;;5116793;28;20027;-94
2021/04/05 05:19:13;;;;;;;6.95;4.70;;;9.80;63.00;;;;;;5116876;27;20031;-91
2021/04/05 05:21:49;;;;;;;8.90;4.80;;;9.70;63.00;;;;;;5109439;28;20061;-93
2021/04/05 05:24:19;;;;;;;8.70;4.97;;;9.80;63.10;;;;;;5121656;28;20034;-92
2021/04/05 05:26:47;;;;;;;7.00;4.45;;;9.80;63.10;;;;;;5116276;28;20031;-93
2021/04/05 05:29:17;;;;;;;8.15;5.03;;;9.80;63.10;;;;;;5117215;28;20054;-92
2021/04/05 05:31:44;;;;;;;7.18;4.53;;;9.80;63.10;;;;;;5116884;28;20115;-93
2021/04/05 05:34:12;;;;;;;6.93;4.60;;;9.80;63.10;;;;;;5116967;28;20046;-92
2021/04/05 05:36:40;;;;;;;7.53;4.10;;;9.80;63.10;;;;;;5109615;28;20031;-93
2021/04/05 05:39:06;;;;;;;7.97;4.85;;;9.80;63.10;;;;;;5109058;28;20518;-93
2021/04/05 05:41:50;;;;;;;7.65;4.20;;;9.80;63.10;;;;;;5096072;28;20032;-92
2021/04/05 05:44:26;;;;;;;7.35;4.45;;;9.80;63.20;;;;;;5109339;28;20396;-92
2021/04/05 05:46:58;;;;;;;5.90;4.07;;;9.80;63.30;;;;;;5116736;28;20467;-89
2021/04/05 05:49:35;;;;;;;5.72;4.03;;;9.80;63.30;;;;;;5116578;28;20496;-94
2021/04/05 05:52:06;;;;;;;8.50;4.47;;;9.90;63.40;;;;;;5114431;28;20039;-84
2021/04/05 05:55:06;;;;;;;5.90;3.67;;;9.90;63.40;;;;;;5114442;28;20028;-83
2021/04/05 05:58:07;;;;;;;4.97;3.10;;;9.90;63.70;;;;;;5104548;28;20447;-83
2021/04/05 06:00:51;;;;;;;3.75;2.30;;;9.90;63.60;;;;;;5101145;28;20023;-84
2021/04/05 06:03:51;;;;;;;4.13;2.45;;;9.90;63.60;;;;;;5114034;28;20031;-83
2021/04/05 06:06:52;;;;;;;3.97;2.35;;;9.90;63.70;;;;;;5118305;27;20028;-82
2021/04/05 06:09:20;;;;;;;3.22;2.20;;;9.90;63.70;;;;;;5106902;27;20023;-83
2021/04/05 06:12:06;;;;;;;3.63;2.22;;;9.90;63.60;;;;;;5102750;28;20042;-83
2021/04/05 06:15:03;;;;;;;2.70;1.75;;;9.90;63.80;;;;;;5110930;28;20026;-81
2021/04/05 06:17:39;;;;;;;2.08;1.50;;;9.90;63.80;;;;;;5114827;27;20466;-83
2021/04/05 06:20:25;;;;;;;3.03;1.55;;;9.90;63.60;;;;;;5116576;27;20043;-83
2021/04/05 06:23:23;;;;;;;2.55;1.75;;;9.90;63.80;;;;;;5098824;27;20035;-83
2021/04/05 06:26:10;;;;;;;3.55;1.88;;;9.90;63.80;;;;;;5091852;28;20016;-83
2021/04/05 06:28:36;;;;;;;2.10;1.40;;;9.90;63.80;;;;;;5131292;27;20042;-83
2021/04/05 06:31:17;;;;;;;1.63;1.35;;;9.90;63.70;;;;;;5097410;28;20039;-83
2021/04/05 06:33:54;;;;;;;1.52;1.20;;;9.90;63.80;;;;;;5112950;28;20019;-82
2021/04/05 06:36:44;;;;;;;1.30;1.20;;;9.90;63.80;;;;;;5076399;28;20024;-84
2021/04/05 06:39:26;;;;;;;1.75;1.40;;;9.90;63.90;;;;;;5096961;28;20035;-83
2021/04/05 06:41:52;;;;;;;1.23;1.00;;;9.90;63.80;;;;;;5107244;28;20042;-84
2021/04/05 06:44:40;;;;;;;1.48;1.30;;;9.90;63.70;;;;;;5113161;28;20380;-84
2021/04/05 06:47:09;;;;;;;1.67;1.45;;;9.80;63.80;;;;;;5106306;28;20122;-81
2021/04/05 06:50:05;;;;;;;0.98;0.95;;;9.90;63.70;;;;;;5116611;27;20019;-82
2021/04/05 06:52:57;;;;;;;1.58;1.10;;;9.80;63.80;;;;;;5118668;27;20028;-86
2021/04/05 06:55:34;;;;;;;1.00;0.90;;;9.90;63.80;;;;;;5137782;27;20092;-85
2021/04/05 06:58:21;;;;;;;1.55;1.00;;;9.90;63.80;;;;;;5109653;27;20080;-85
2021/04/05 07:00:57;;;;;;;1.30;1.20;;;9.80;63.80;;;;;;5111033;28;20148;-85
2021/04/05 07:04:09;;;;;;;1.17;0.93;;;9.80;63.70;;;;;;5132011;27;20463;-86
2021/04/05 07:06:46;;;;;;;1.17;0.95;;;9.80;63.90;;;;;;5086958;28;20050;-82
2021/04/05 07:09:35;;;;;;;2.08;1.10;;;9.80;63.80;;;;;;5113564;27;20111;-86
2021/04/05 07:12:24;;;;;;;1.63;1.10;;;9.80;63.80;;;;;;5129076;27;20038;-84
2021/04/05 07:15:16;;;;;;;1.60;1.23;;;9.80;63.80;;;;;;5118631;27;20027;-84
2021/04/05 07:18:19;;;;;;;1.42;1.10;;;9.80;63.90;;;;;;5112154;27;20478;-86
2021/04/05 07:21:02;;;;;;;1.15;1.05;;;9.80;63.90;;;;;;5117242;27;20120;-82
2021/04/05 07:24:06;;;;;;;3.40;0.93;;;9.70;63.90;;;;;;5114059;28;20026;-83
2021/04/05 07:26:44;;;;;;;1.23;0.98;;;9.80;64.00;;;;;;5119120;27;20058;-80
2021/04/05 07:29:24;;;;;;;1.25;1.10;;;9.80;63.90;;;;;;5117445;27;20410;-81
2021/04/05 07:31:57;;;;;;;1.55;0.93;;;9.80;63.90;;;;;;5100544;28;20023;-79
2021/04/05 07:34:27;;;;;;;1.50;1.10;;;9.70;63.80;;;;;;5131074;27;20027;-85
2021/04/05 07:37:15;;;;;;;1.70;1.00;;;9.70;63.80;;;;;;5129606;27;20048;-82
2021/04/05 07:40:23;;;;;;;1.75;1.17;;;9.70;63.80;;;;;;5114569;27;20027;-81
2021/04/05 07:43:28;;;;;;;1.80;1.20;;;9.70;63.90;;;;;;5130935;27;20031;-80
2021/04/05 07:46:13;;;;;;;1.85;1.10;;;9.70;63.90;;;;;;5118595;27;20104;-81
2021/04/05 07:48:47;;;;;;;0.80;0.80;;;9.70;63.70;;;;;;5114745;27;20028;-79
2021/04/05 07:51:20;;;;;;;1.33;0.90;;;9.70;63.80;;;;;;5113491;28;20426;-78
2021/04/05 07:53:58;;;;;;;1.80;1.38;;;9.70;63.80;;;;;;5112212;28;20023;-81
2021/04/05 07:56:45;;;;;;;1.35;1.00;;;9.70;63.90;;;;;;5111097;28;20028;-80
2021/04/05 07:59:29;;;;;;;1.00;0.90;;;9.70;63.80;;;;;;5115868;27;20081;-79
2021/04/05 08:02:08;;;;;;;0.98;0.90;;;9.60;63.70;;;;;;5129738;27;20075;-79
2021/04/05 08:04:52;;;;;;;2.42;1.20;;;9.60;63.60;;;;;;5111455;28;20052;-79
2021/04/05 08:07:54;;;;;;;2.97;1.20;;;9.70;63.70;;;;;;5100602;28;20031;-81
2021/04/05 08:10:28;;;;;;;2.30;1.20;;;9.60;63.60;;;;;;5133691;27;20023;-79
2021/04/05 08:13:11;;;;;;;3.05;1.20;;;9.60;63.50;;;;;;5111625;28;20020;-80
2021/04/05 08:15:38;;;;;;;3.55;1.40;;;9.60;63.50;;;;;;5111140;28;20024;-88
2021/04/05 08:18:26;;;;;;;2.60;1.23;;;9.60;63.50;;;;;;5112427;28;20027;-80
2021/04/05 08:20:52;;;;;;;2.88;1.52;;;9.60;63.60;;;;;;5128172;27;20028;-80
2021/04/05 08:23:45;;;;;;;3.38;1.58;;;9.50;63.40;;;;;;5130200;27;20024;-82
2021/04/05 08:26:25;;;;;;;2.67;1.30;;;9.50;63.50;;;;;;5091195;28;20487;-81
2021/04/05 08:29:20;;;;;;;2.17;1.15;;;9.50;63.40;;;;;;5129176;27;20027;-81
2021/04/05 08:31:58;;;;;;;5.50;1.73;;;9.50;63.50;;;;;;5113251;28;20028;-83
2021/04/05 08:35:01;;;;;;;2.05;1.17;;;9.50;63.30;;;;;;5123896;28;20023;-85
2021/04/05 08:37:55;;;;;;;2.50;1.17;;;9.50;63.40;;;;;;5112707;28;20026;-87
2021/04/05 08:40:30;;;;;;;2.25;1.20;;;9.50;63.30;;;;;;5110724;28;20066;-85
2021/04/05 08:42:56;;;;;;;;;;;9.50;63.20;;;;;;5100934;28;20020;-82
2021/04/05 08:45:24;;;;;;;1.25;1.10;;;9.40;63.10;;;;;;5121909;27;19908;-78
2021/04/05 08:47:57;;;;;;;1.88;1.20;;;9.50;63.00;;;;;;5131781;27;20045;-81
2021/04/05 08:50:27;;;;;;;1.67;1.08;;;9.40;63.00;;;;;;5128875;27;20087;-82
2021/04/05 08:52:56;;;;;;;1.88;1.25;;;9.40;63.00;;;;;;5125605;27;20512;-79
2021/04/05 08:55:25;;;;;;;1.48;1.05;;;9.40;63.00;;;;;;5109973;27;20024;-77
2021/04/05 08:58:05;;;;;;;2.80;1.20;;;9.40;62.90;;;;;;5110561;27;20007;-79
2021/04/05 09:00:35;;;;;;;1.95;1.48;;;9.40;62.90;;;;;;5109703;28;20046;-79
2021/04/05 09:03:07;;;;;;;3.70;1.23;;;9.40;62.80;;;;;;5112325;28;20085;-87
2021/04/05 09:05:40;;;;;;;2.40;1.20;;;9.40;62.70;;;;;;5113039;27;20066;-82
2021/04/05 09:08:11;;;;;;;2.40;1.40;;;9.40;62.60;;;;;;5128868;27;20057;-84
2021/04/05 09:11:03;;;;;;;2.80;1.60;;;9.40;62.50;;;;;;5095454;28;20058;-82
2021/04/05 09:13:52;;;;;;;1.77;1.25;;;9.40;62.50;;;;;;5108444;27;20119;-82
2021/04/05 09:16:36;;;;;;;1.80;1.20;;;9.40;62.30;;;;;;5143984;27;20468;-81
2021/04/05 09:19:12;;;;;;;2.25;1.17;;;9.50;62.30;;;;;;5116828;27;20020;-81
2021/04/05 09:22:05;;;;;;;1.45;1.13;;;9.40;62.20;;;;;;5098144;27;20471;-80
2021/04/05 09:24:31;;;;;;;2.10;1.42;;;9.40;62.30;;;;;;5111950;28;20055;-80
2021/04/05 09:26:57;;;;;;;1.65;1.10;;;9.50;62.20;;;;;;5126228;27;20055;-80
2021/04/05 09:29:33;;;;;;;2.10;1.40;;;9.40;62.10;;;;;;5106389;28;20020;-81
2021/04/05 09:32:25;;;;;;;1.33;0.90;;;9.40;62.10;;;;;;5096750;28;20043;-82
2021/04/05 09:35:29;;;;;;;3.50;1.40;;;9.50;62.10;;;;;;5114219;28;20051;-80
2021/04/05 09:38:02;;;;;;;0.80;0.80;;;9.40;62.10;;;;;;5114849;28;20410;-80
2021/04/05 09:41:02;;;;;;;0.90;0.80;;;9.50;61.90;;;;;;5123211;27;20416;-81
2021/04/05 09:43:49;;;;;;;1.17;0.95;;;9.50;62.00;;;;;;5093641;27;20109;-85
2021/04/05 09:46:49;;;;;;;0.80;0.80;;;9.50;62.00;;;;;;5120228;27;20023;-81
2021/04/05 09:49:42;;;;;;;0.90;0.90;;;9.50;62.00;;;;;;5120542;27;20028;-82
2021/04/05 09:52:08;;;;;;;0.90;0.90;;;9.50;61.90;;;;;;5097465;28;20114;-78
2021/04/05 09:54:39;;;;;;;1.02;0.90;;;9.40;61.80;;;;;;5114271;27;20115;-84
2021/04/05 09:57:14;;;;;;;0.95;0.90;;;9.50;61.90;;;;;;5113232;27;20020;-79
2021/04/05 09:59:46;;;;;;;;;;;9.50;61.90;;;;;;5114470;27;20387;-81
2021/04/05 10:02:15;;;;;;;0.90;0.90;;;9.50;61.80;;;;;;5129827;27;19955;-82
2021/04/05 10:04:44;;;;;;;1.70;0.90;;;9.50;61.60;;;;;;5106514;28;20071;-80
2021/04/05 10:07:12;;;;;;;0.85;0.70;;;9.50;61.70;;;;;;5114526;27;20031;-79
2021/04/05 10:09:39;;;;;;;1.55;0.98;;;9.50;61.60;;;;;;5097162;28;20468;-85
2021/04/05 10:12:07;;;;;;;0.90;0.90;;;9.50;61.60;;;;;;5136637;27;20032;-84
2021/04/05 10:14:39;;;;;;;0.93;0.80;;;9.50;61.60;;;;;;5109196;27;20019;-78
2021/04/05 10:17:06;;;;;;;0.93;0.93;;;9.50;61.60;;;;;;5112404;27;20097;-82
2021/04/05 10:19:34;;;;;;;2.05;1.27;;;9.50;61.50;;;;;;5126716;27;20024;-84
2021/04/05 10:22:04;;;;;;;1.77;1.00;;;9.60;61.40;;;;;;5114194;28;20857;-83
2021/04/05 10:24:34;;;;;;;1.10;1.00;;;9.60;61.30;;;;;;5115941;28;20019;-84
2021/04/05 10:27:05;;;;;;;1.40;0.95;;;9.60;61.20;;;;;;5116245;27;20470;-84
2021/04/05 10:29:34;;;;;;;1.77;1.00;;;9.60;61.10;;;;;;5117722;27;20419;-78
2021/04/05 10:32:03;;;;;;;1.92;1.20;;;9.60;61.10;;;;;;5064941;28;20350;-81
2021/04/05 10:34:29;;;;;;;1.55;1.23;;;9.60;61.00;;;;;;5110527;28;20044;-81
2021/04/05 10:37:09;;;;;;;1.27;1.05;;;9.60;60.90;;;;;;5111629;28;20035;-81
2021/04/05 10:39:49;;;;;;;1.10;0.98;;;9.60;60.90;;;;;;5110809;28;20107;-79
2021/04/05 10:42:39;;;;;;;2.47;1.15;;;9.60;60.80;;;;;;5082344;27;20024;-84
2021/04/05 10:45:10;;;;;;;2.17;1.30;;;9.60;60.90;;;;;;5126128;27;20055;-84
2021/04/05 10:48:02;;;;;;;1.17;1.00;;;9.60;60.80;;;;;;5111007;27;20448;-82
2021/04/05 10:50:30;;;;;;;2.83;1.15;;;9.60;60.80;;;;;;5111812;28;20020;-85
2021/04/05 10:53:04;;;;;;;2.97;1.40;;;9.60;60.60;;;;;;5111230;27;20731;-83
2021/04/05 10:55:30;;;;;;;1.92;1.10;;;9.60;60.60;;;;;;5112826;28;20331;-85
2021/04/05 10:58:00;;;;;;;1.58;1.38;;;9.60;60.40;;;;;;5110787;27;20023;-88
2021/04/05 11:00:36;;;;;;;1.92;1.30;;;9.60;60.30;;;;;;5106155;28;20039;-81
2021/04/05 11:03:23;;;;;;;1.75;0.95;;;9.70;60.20;;;;;;5112655;27;20019;-81
2021/04/05 11:05:51;;;;;;;1.60;1.20;;;9.70;60.10;;;;;;5113755;27;20051;-79
2021/04/05 11:08:23;;;;;;;1.92;0.90;;;9.70;60.00;;;;;;5116305;27;20523;-78
2021/04/05 11:10:51;;;;;;;3.63;1.13;;;9.70;59.90;;;;;;5111225;28;20081;-81
2021/04/05 11:13:20;;;;;;;2.03;1.05;;;9.70;59.80;;;;;;5093773;27;20039;-89
2021/04/05 11:15:47;;;;;;;2.60;1.20;;;9.70;59.70;;;;;;5111255;28;20027;-90
2021/04/05 11:18:16;;;;;;;3.08;1.10;;;9.70;59.60;;;;;;5110174;27;20026;-82
2021/04/05 11:20:44;;;;;;;1.75;1.15;;;9.80;59.60;;;;;;5095157;27;20414;-82
2021/04/05 11:23:14;;;;;;;1.77;1.10;;;9.80;59.50;;;;;;5083700;27;20055;-85
2021/04/05 11:25:52;;;;;;;3.80;1.67;;;9.80;60.00;;;;;;5111077;28;20051;-91
2021/04/05 11:28:25;;;;;;;2.67;1.10;;;9.80;59.40;;;;;;5127975;27;20471;-82
2021/04/05 11:31:00;;;;;;;1.90;1.02;;;9.80;59.30;;;;;;5110512;27;20438;-82
2021/04/05 11:33:31;;;;;;;;;;;9.80;59.30;;;;;;5110732;27;20031;-81
2021/04/05 11:35:58;;;;;;;2.30;1.23;;;9.80;59.30;;;;;;5111638;28;19908;-83
2021/04/05 11:38:24;;;;;;;2.13;1.10;;;9.90;59.20;;;;;;5108540;27;20525;-81
2021/04/05 11:40:58;;;;;;;2.45;1.40;;;9.80;59.20;;;;;;5110199;28;20048;-81
2021/04/05 11:43:29;;;;;;;1.48;1.00;;;9.80;59.30;;;;;;5097350;28;20020;-82
2021/04/05 11:46:05;;;;;;;1.85;1.10;;;9.80;59.20;;;;;;5110731;28;20057;-81
2021/04/05 11:48:31;;;;;;;2.08;1.05;;;9.80;59.20;;;;;;5109414;28;20030;-82
2021/04/05 11:50:56;;;;;;;1.83;0.98;;;9.80;59.20;;;;;;5109552;28;20119;-83
2021/04/05 11:53:41;;;;;;;1.92;0.98;;;9.80;59.20;;;;;;5108150;28;20372;-82
2021/04/05 11:56:16;;;;;;;2.13;1.17;;;9.70;59.30;;;;;;5093194;28;20031;-82
2021/04/05 11:58:56;;;;;;;1.17;1.00;;;9.80;59.30;;;;;;5126621;27;20088;-82
2021/04/05 12:01:25;;;;;;;1.23;1.00;;;9.80;59.30;;;;;;5102119;27;20379;-82
2021/04/05 12:04:02;;;;;;;1.25;1.00;;;9.70;59.20;;;;;;5109706;27;20073;-82
2021/04/05 12:06:38;;;;;;;1.50;1.08;;;9.70;59.20;;;;;;5109237;28;20055;-82
2021/04/05 12:09:21;;;;;;;2.50;1.20;;;9.70;59.10;;;;;;5100556;27;20387;-82
2021/04/05 12:11:50;;;;;;;2.20;1.05;;;9.70;59.10;;;;;;5113603;27;20023;-88
2021/04/05 12:14:25;;;;;;;2.30;1.30;;;9.80;59.10;;;;;;5107214;27;20038;-85
2021/04/05 12:16:54;;;;;;;1.70;1.27;;;9.80;59.00;;;;;;5095285;28;20027;-82
2021/04/05 12:19:37;;;;;;;3.13;1.40;;;9.80;59.00;;;;;;5108532;27;20023;-85
2021/04/05 12:22:05;;;;;;;1.02;0.90;;;9.80;59.00;;;;;;5110400;27;20055;-85
2021/04/05 12:24:33;;;;;;;2.70;1.30;;;9.80;59.00;;;;;;5091516;28;20046;-84
2021/04/05 12:27:04;;;;;;;1.25;0.95;;;9.80;59.00;;;;;;5106415;28;20031;-84
2021/04/05 12:29:32;;;;;;;2.58;1.33;;;9.80;59.00;;;;;;5107963;28;20067;-85
2021/04/05 12:31:59;;;;;;;2.72;1.05;;;9.80;59.10;;;;;;5108691;28;20043;-82
2021/04/05 12:34:34;;;;;;;2.72;1.25;;;9.80;59.10;;;;;;5110096;28;20464;-85
2021/04/05 12:37:09;;;;;;;2.10;1.00;;;9.80;59.10;;;;;;5104474;28;20023;-83
2021/04/05 12:39:35;;;;;;;0.88;0.80;;;9.80;59.00;;;;;;5110648;28;20081;-84
2021/04/05 12:42:11;;;;;;;1.10;0.90;;;9.80;59.00;;;;;;5094184;28;20044;-83
2021/04/05 12:44:39;;;;;;;1.98;1.10;;;9.80;59.00;;;;;;5102119;28;20036;-93
2021/04/05 12:47:10;;;;;;;1.50;1.35;;;9.80;59.00;;;;;;5106472;28;20035;-85
2021/04/05 12:49:42;;;;;;;1.90;1.00;;;9.80;59.10;;;;;;5102083;28;20162;-90
2021/04/05 12:52:31;;;;;;;1.25;1.15;;;9.80;59.10;;;;;;5109385;28;20028;-85
2021/04/05 12:55:02;;;;;;;1.70;1.10;;;9.80;59.20;;;;;;5120634;28;20376;-87
2021/04/05 12:57:33;;;;;;;1.80;0.80;;;9.80;59.10;;;;;;5121027;28;20031;-82
2021/04/05 13:00:00;;;;;;;0.80;0.80;;;9.90;59.30;;;;;;5116672;28;20028;-84
2021/04/05 13:02:30;;;;;;;1.27;1.02;;;9.90;59.30;;;;;;5093610;28;20111;-81
2021/04/05 13:05:09;;;;;;;2.13;1.15;;;9.90;59.30;;;;;;5109936;28;20123;-78
2021/04/05 13:07:52;;;;;;;2.15;1.00;;;9.90;59.40;;;;;;5125222;27;20016;-79
2021/04/05 13:10:23;;;;;;;1.17;0.90;;;9.90;59.40;;;;;;5106148;28;20032;-84
2021/04/05 13:12:58;;;;;;;2.65;1.20;;;9.90;59.30;;;;;;5099941;28;20089;-81
2021/04/05 13:15:34;;;;;;;1.15;1.02;;;9.90;59.30;;;;;;5094841;28;20044;-82
2021/04/05 13:18:20;;;;;;;1.73;1.10;;;9.90;59.10;;;;;;5104570;28;20451;-81
2021/04/05 13:20:49;;;;;;;1.83;0.98;;;9.90;59.00;;;;;;5125829;27;20036;-81
2021/04/05 13:23:22;;;;;;;1.27;0.90;;;9.90;58.90;;;;;;5120508;28;20027;-82
2021/04/05 13:25:57;;;;;;;0.80;0.80;;;9.90;58.90;;;;;;5121150;28;20119;-80
2021/04/05 13:28:27;;;;;;;1.17;1.08;;;9.90;58.80;;;;;;5101764;28;20034;-84
2021/04/05 13:30:59;;;;;;;1.05;0.88;;;9.90;58.70;;;;;;5116460;27;20062;-81
2021/04/05 13:33:25;;;;;;;1.30;0.90;;;9.90;58.60;;;;;;5116134;27;20078;-84